Time;durP1;ratioP1;P1;durP2;ratioP2;P2;SDS_P1;SDS_P2;PMS_P1;PMS_P2;Temp;Humidity;BMP_temperature;BMP_pressure;BME280_temperature;BME280_humidity;BME280_pressure;Samples;Min_cycle;Max_cycle;Signal;HPM_P1;HPM_P2
2022/12/10 00:02:04;;;;;;;;;;;19.60;81.50;;;;;;5095181;28;19908;-47
2022/12/10 00:04:29;;;;;;;;;;;19.60;81.60;;;;;;5095149;28;19909;-47
2022/12/10 00:06:54;;;;;;;;;;;19.60;81.60;;;;;;5095171;28;19912;-46
2022/12/10 00:09:20;;;;;;;;;;;19.50;81.60;;;;;;5095019;28;19918;-48
2022/12/10 00:11:46;;;;;;;;;;;19.60;81.70;;;;;;5094710;28;19931;-49
2022/12/10 00:14:12;;;;;;;;;;;19.60;81.80;;;;;;5094974;28;20351;-45
2022/12/10 00:16:37;;;;;;;;;;;19.50;81.70;;;;;;5094650;28;19912;-46
2022/12/10 00:19:03;;;;;;;;;;;19.60;81.80;;;;;;5094943;28;19912;-46
2022/12/10 00:21:30;;;;;;;;;;;19.50;81.80;;;;;;5094589;28;19999;-46
2022/12/10 00:23:56;;;;;;;;;;;19.60;81.80;;;;;;5094585;28;19915;-47
2022/12/10 00:26:29;;;;;;;;;;;19.60;81.80;;;;;;5094606;28;19912;-44
2022/12/10 00:28:58;;;;;;;;;;;19.60;82.00;;;;;;5094725;28;19915;-48
2022/12/10 00:31:24;;;;;;;;;;;19.60;81.90;;;;;;5094795;28;19915;-47
2022/12/10 00:33:50;;;;;;;;;;;19.60;81.90;;;;;;5094729;28;19920;-49
2022/12/10 00:36:17;;;;;;;;;;;19.70;81.90;;;;;;5094677;28;20382;-49
2022/12/10 00:38:43;;;;;;;;;;;19.70;81.90;;;;;;5094419;28;19912;-46
2022/12/10 00:41:09;;;;;;;;;;;19.70;81.80;;;;;;5094656;28;19961;-48
2022/12/10 00:43:35;;;;;;;;;;;19.70;81.70;;;;;;5094142;28;19908;-44
2022/12/10 00:46:01;;;;;;;;;;;19.70;81.70;;;;;;5094431;28;19927;-47
2022/12/10 00:48:26;;;;;;;;;;;19.70;81.60;;;;;;5094496;28;19908;-48
2022/12/10 00:50:59;;;;;;;;;;;19.80;81.70;;;;;;5094028;28;20010;-47
2022/12/10 00:53:26;;;;;;;;;;;19.80;81.70;;;;;;5093987;28;20366;-45
2022/12/10 00:55:51;;;;;;;;;;;19.80;81.60;;;;;;5094112;28;20281;-45
2022/12/10 00:58:17;;;;;;;;;;;19.80;81.60;;;;;;5094158;28;19912;-48
2022/12/10 01:00:42;;;;;;;;;;;19.80;81.60;;;;;;5094257;28;19965;-45
2022/12/10 01:03:08;;;;;;;;;;;19.80;81.60;;;;;;5094642;28;19908;-44
2022/12/10 01:05:33;;;;;;;;;;;19.80;81.60;;;;;;5094303;28;19943;-46
2022/12/10 01:07:59;;;;;;;;;;;19.80;81.70;;;;;;5076277;28;19923;-46
2022/12/10 01:10:24;;;;;;;;;;;19.70;81.70;;;;;;5076166;28;20376;-45
2022/12/10 01:12:49;;;;;;;;;;;19.70;81.70;;;;;;5093885;28;19912;-46
2022/12/10 01:15:15;;;;;;;;;;;19.70;81.70;;;;;;5094554;28;19916;-44
2022/12/10 01:17:40;;;;;;;;;;;19.80;81.90;;;;;;5094067;28;20010;-48
2022/12/10 01:20:06;;;;;;;;;;;19.80;82.00;;;;;;5093732;28;19912;-47
2022/12/10 01:22:32;;;;;;;;;;;19.80;82.00;;;;;;5094074;28;19916;-47
2022/12/10 01:24:57;;;;;;;;;;;19.80;82.00;;;;;;5075936;28;19915;-47
2022/12/10 01:27:23;;;;;;;;;;;19.80;82.00;;;;;;5093716;28;19922;-47
2022/12/10 01:29:48;;;;;;;;;;;19.80;82.00;;;;;;5094009;28;19908;-46
2022/12/10 01:32:13;;;;;;;;;;;19.70;82.00;;;;;;5093953;28;19955;-48
2022/12/10 01:34:39;;;;;;;;;;;19.80;82.00;;;;;;5093924;28;19920;-48
2022/12/10 01:37:04;;;;;;;;;;;19.80;82.10;;;;;;5093826;28;19956;-45
2022/12/10 01:39:30;;;;;;;;;;;19.80;82.20;;;;;;5093603;28;19974;-45
2022/12/10 01:41:57;;;;;;;;;;;19.80;82.10;;;;;;5093891;28;19909;-47
2022/12/10 01:44:23;;;;;;;;;;;19.80;82.10;;;;;;5075863;28;19908;-46
2022/12/10 01:46:53;;;;;;;;;;;19.80;82.10;;;;;;5093547;28;19915;-49
2022/12/10 01:49:20;;;;;;;;;;;19.80;82.10;;;;;;5093437;28;19922;-47
2022/12/10 01:51:48;;;;;;;;;;;19.80;82.10;;;;;;5093492;28;19915;-46
2022/12/10 01:54:15;;;;;;;;;;;19.80;82.00;;;;;;5093460;28;20337;-47
2022/12/10 01:56:42;;;;;;;;;;;19.80;82.00;;;;;;5093840;28;19916;-46
2022/12/10 01:59:09;;;;;;;;;;;19.80;82.10;;;;;;5096050;28;19920;-46
2022/12/10 02:01:37;;;;;;;;;;;19.80;82.00;;;;;;5079247;28;20260;-46
2022/12/10 02:04:11;;;;;;;;;;;19.80;82.10;;;;;;5097255;28;20363;-47
2022/12/10 02:06:55;;;;;;;;;;;19.80;82.00;;;;;;5097340;28;19915;-45
2022/12/10 02:09:34;;;;;;;;;;;19.80;81.90;;;;;;5097434;28;20371;-47
2022/12/10 02:12:18;;;;;;;;;;;19.90;82.00;;;;;;5097211;28;19908;-46
2022/12/10 02:14:47;;;;;;;;;;;19.90;82.00;;;;;;5097408;28;20004;-46
2022/12/10 02:17:31;;;;;;;;;;;19.90;81.90;;;;;;5097344;28;19919;-47
2022/12/10 02:19:56;;;;;;;;;;;19.90;81.90;;;;;;5096972;28;19917;-47
2022/12/10 02:22:22;;;;;;;;;;;19.90;81.90;;;;;;5097104;28;19915;-47
2022/12/10 02:24:51;;;;;;;;;;;20.00;81.90;;;;;;5097233;28;20363;-45
2022/12/10 02:27:30;;;;;;;;;;;20.00;81.90;;;;;;5097165;28;19908;-47
2022/12/10 02:29:58;;;;;;;;;;;20.00;81.90;;;;;;5097208;28;19908;-47
2022/12/10 02:32:25;;;;;;;;;;;19.90;81.80;;;;;;5096808;28;19909;-45
2022/12/10 02:34:53;;;;;;;;;;;20.00;81.90;;;;;;5097060;28;20259;-46
2022/12/10 02:37:34;;;;;;;;;;;20.00;81.90;;;;;;5096441;28;19919;-47
2022/12/10 02:40:03;;;;;;;;;;;20.00;82.40;;;;;;5096615;28;19912;-46
2022/12/10 02:42:30;;;;;;;;;;;20.00;81.90;;;;;;5096897;28;19908;-45
2022/12/10 02:44:56;;;;;;;;;;;20.00;81.90;;;;;;5096504;28;19940;-48
2022/12/10 02:47:21;;;;;;;;;;;20.00;81.90;;;;;;5096782;28;19919;-46
2022/12/10 02:49:49;;;;;;;;;;;20.00;82.00;;;;;;5096483;28;19954;-49
2022/12/10 02:52:17;;;;;;;;;;;20.00;81.90;;;;;;5096741;28;19948;-47
2022/12/10 02:54:44;;;;;;;;;;;20.00;82.00;;;;;;5096402;28;19909;-46
2022/12/10 02:57:28;;;;;;;;;;;20.00;82.00;;;;;;5096562;28;19959;-50
2022/12/10 02:59:53;;;;;;;;;;;19.90;82.00;;;;;;5096062;28;19919;-47
2022/12/10 03:02:32;;;;;;;;;;;19.90;82.00;;;;;;5096249;28;19998;-52
2022/12/10 03:05:17;;;;;;;;;;;19.90;82.00;;;;;;5096521;28;19952;-46
2022/12/10 03:07:53;;;;;;;;;;;19.90;82.00;;;;;;5096123;28;20354;-46
2022/12/10 03:10:27;;;;;;;;;;;19.90;82.10;;;;;;5095164;28;20023;-47
2022/12/10 03:13:00;;;;;;;;;;;19.90;82.10;;;;;;5096160;28;19912;-45
2022/12/10 03:15:27;;;;;;;;;;;19.90;82.10;;;;;;5096109;28;19915;-47
2022/12/10 03:17:53;;;;;;;;;;;19.90;82.10;;;;;;5096158;28;19916;-44
2022/12/10 03:20:20;;;;;;;;;;;19.90;82.20;;;;;;5096136;28;20006;-48
2022/12/10 03:22:46;;;;;;;;;;;19.90;82.10;;;;;;5096105;28;20408;-46
2022/12/10 03:25:15;;;;;;;;;;;20.00;82.20;;;;;;5096002;28;19908;-45
2022/12/10 03:27:41;;;;;;;;;;;20.00;82.20;;;;;;5096039;28;19957;-46
2022/12/10 03:30:07;;;;;;;;;;;20.00;82.20;;;;;;5095710;28;20317;-47
2022/12/10 03:32:33;;;;;;;;;;;20.00;82.20;;;;;;5095478;28;19953;-47
2022/12/10 03:34:59;;;;;;;;;;;20.00;82.10;;;;;;5060739;28;19920;-46
2022/12/10 03:37:25;;;;;;;;;;;20.00;82.10;;;;;;5095757;28;19912;-46
2022/12/10 03:39:51;;;;;;;;;;;20.00;82.10;;;;;;5095523;28;19916;-51
2022/12/10 03:42:16;;;;;;;;;;;20.00;82.10;;;;;;5095412;28;19914;-47
2022/12/10 03:44:42;;;;;;;;;;;20.00;82.10;;;;;;5095658;28;20373;-50
2022/12/10 03:47:10;;;;;;;;;;;20.10;82.20;;;;;;5095566;28;19908;-47
2022/12/10 03:49:36;;;;;;;;;;;20.00;82.10;;;;;;5095265;28;19908;-49
2022/12/10 03:52:01;;;;;;;;;;;20.00;82.10;;;;;;5095245;28;19908;-45
2022/12/10 03:54:27;;;;;;;;;;;20.10;82.20;;;;;;5095157;28;19908;-48
2022/12/10 03:56:52;;;;;;;;;;;20.10;82.20;;;;;;5095674;28;19961;-45
2022/12/10 03:59:18;;;;;;;;;;;20.10;82.60;;;;;;5095067;28;20002;-45
2022/12/10 04:01:44;;;;;;;;;;;20.10;82.10;;;;;;5077002;28;20377;-46
2022/12/10 04:04:09;;;;;;;;;;;20.10;82.10;;;;;;5077063;28;19908;-47
2022/12/10 04:06:38;;;;;;;;;;;20.10;82.10;;;;;;5094936;28;19908;-47
2022/12/10 04:09:03;;;;;;;;;;;20.10;82.10;;;;;;5095165;28;19937;-46
2022/12/10 04:11:29;;;;;;;;;;;20.10;82.00;;;;;;5094834;28;20415;-48
2022/12/10 04:16:39;;;;;;;;;;;20.10;82.10;;;;;;5095147;28;20001;-48
2022/12/10 04:19:05;;;;;;;;;;;20.10;82.00;;;;;;5094916;28;19974;-46
2022/12/10 04:27:04;;;;;;;;;;;20.20;82.30;;;;;;5094978;28;19978;-48
2022/12/10 04:29:30;;;;;;;;;;;20.10;82.20;;;;;;5094510;28;19915;-47
2022/12/10 04:31:56;;;;;;;;;;;20.10;82.20;;;;;;5094603;28;19909;-49
2022/12/10 04:34:21;;;;;;;;;;;20.10;82.20;;;;;;5094161;28;20385;-46
2022/12/10 04:36:47;;;;;;;;;;;20.10;82.20;;;;;;5094612;28;19908;-47
2022/12/10 04:39:13;;;;;;;;;;;20.10;82.20;;;;;;5094360;28;20365;-45
2022/12/10 04:41:40;;;;;;;;;;;20.10;82.10;;;;;;5094631;28;20053;-49
2022/12/10 04:44:06;;;;;;;;;;;20.20;82.30;;;;;;5094605;28;19952;-47
2022/12/10 04:46:31;;;;;;;;;;;20.10;82.20;;;;;;5094488;28;20309;-45
2022/12/10 04:48:57;;;;;;;;;;;20.10;82.20;;;;;;5094545;28;19955;-45
2022/12/10 04:51:22;;;;;;;;;;;20.10;82.20;;;;;;5094191;28;19911;-49
2022/12/10 04:53:47;;;;;;;;;;;20.10;82.10;;;;;;5074879;28;19912;-46
2022/12/10 04:56:13;;;;;;;;;;;20.20;82.10;;;;;;5094464;28;20372;-44
2022/12/10 04:58:38;;;;;;;;;;;20.10;82.20;;;;;;5093826;28;20532;-46
2022/12/10 05:01:05;;;;;;;;;;;20.10;82.20;;;;;;5094390;28;19955;-49
2022/12/10 05:03:31;;;;;;;;;;;20.10;82.20;;;;;;5094193;28;19919;-46
2022/12/10 05:06:00;;;;;;;;;;;20.10;82.20;;;;;;5093933;28;19909;-44
2022/12/10 05:08:25;;;;;;;;;;;20.10;82.30;;;;;;5091974;28;19919;-45
2022/12/10 05:10:51;;;;;;;;;;;20.10;82.30;;;;;;5093923;28;19912;-47
2022/12/10 05:13:16;;;;;;;;;;;20.10;82.50;;;;;;5094590;28;19915;-45
2022/12/10 05:15:42;;;;;;;;;;;20.10;82.40;;;;;;5102177;28;19914;-45
2022/12/10 05:18:07;;;;;;;;;;;20.10;82.50;;;;;;5114478;28;19912;-45
2022/12/10 05:20:33;;;;;;;;;;;20.10;82.50;;;;;;5084929;28;19918;-46
2022/12/10 05:25:54;;;;;;;;;;;20.10;82.50;;;;;;5080127;28;19919;-47
2022/12/10 05:28:20;;;;;;;;;;;20.10;82.50;;;;;;5094212;28;19908;-46
2022/12/10 05:30:46;;;;;;;;;;;20.10;82.70;;;;;;5093658;28;19947;-48
2022/12/10 05:33:12;;;;;;;;;;;20.10;82.60;;;;;;5094415;28;19908;-46
2022/12/10 05:35:37;;;;;;;;;;;20.10;82.60;;;;;;5097471;28;19920;-44
2022/12/10 05:38:03;;;;;;;;;;;20.10;82.70;;;;;;5094560;28;19963;-45
2022/12/10 05:40:29;;;;;;;;;;;20.00;82.70;;;;;;5096779;28;19915;-45
2022/12/10 05:42:54;;;;;;;;;;;20.00;83.00;;;;;;5096670;28;19904;-46
2022/12/10 05:45:20;;;;;;;;;;;20.00;83.00;;;;;;5096547;28;20124;-48
2022/12/10 05:47:45;;;;;;;;;;;20.00;83.00;;;;;;5078416;28;20335;-47
2022/12/10 05:50:11;;;;;;;;;;;20.00;83.00;;;;;;5096877;28;20014;-49
2022/12/10 05:52:36;;;;;;;;;;;20.00;83.00;;;;;;5096145;28;19911;-47
2022/12/10 05:55:01;;;;;;;;;;;20.00;82.90;;;;;;5097389;28;20006;-49
2022/12/10 05:57:27;;;;;;;;;;;20.00;82.80;;;;;;5099205;28;20346;-46
2022/12/10 05:59:52;;;;;;;;;;;20.00;83.00;;;;;;5096449;28;19935;-47
2022/12/10 06:02:18;;;;;;;;;;;20.00;83.00;;;;;;5096070;28;20381;-46
2022/12/10 06:04:43;;;;;;;;;;;20.00;82.90;;;;;;5089807;28;19999;-45
2022/12/10 06:07:09;;;;;;;;;;;20.00;82.90;;;;;;5098406;28;19912;-45
2022/12/10 06:09:34;;;;;;;;;;;20.10;82.80;;;;;;5098867;28;20351;-46
2022/12/10 06:12:00;;;;;;;;;;;20.10;82.80;;;;;;5099571;28;19920;-46
2022/12/10 06:14:25;;;;;;;;;;;20.10;82.70;;;;;;5098400;28;19908;-46
2022/12/10 06:16:51;;;;;;;;;;;20.10;82.70;;;;;;5099855;28;19921;-48
2022/12/10 06:19:16;;;;;;;;;;;20.20;82.60;;;;;;5097207;28;19920;-48
2022/12/10 06:21:44;;;;;;;;;;;20.20;82.60;;;;;;5096954;28;20355;-48
2022/12/10 06:24:10;;;;;;;;;;;20.20;82.50;;;;;;5096371;28;19915;-46
2022/12/10 06:26:36;;;;;;;;;;;20.20;82.80;;;;;;5095168;28;20321;-46
2022/12/10 06:29:01;;;;;;;;;;;20.20;82.70;;;;;;5094624;28;19908;-45
2022/12/10 06:31:27;;;;;;;;;;;20.20;82.60;;;;;;5094832;28;20255;-45
2022/12/10 06:33:53;;;;;;;;;;;20.30;82.50;;;;;;5094714;28;19927;-45
2022/12/10 06:36:19;;;;;;;;;;;20.30;82.50;;;;;;5094582;28;20362;-46
2022/12/10 06:38:45;;;;;;;;;;;20.30;82.50;;;;;;5094720;28;19956;-47
2022/12/10 06:41:12;;;;;;;;;;;20.30;82.50;;;;;;5095717;28;19920;-45
2022/12/10 06:43:38;;;;;;;;;;;20.30;82.40;;;;;;5096402;28;19963;-45
2022/12/10 06:46:04;;;;;;;;;;;20.30;82.40;;;;;;5096681;28;20041;-48
2022/12/10 06:48:30;;;;;;;;;;;20.30;82.40;;;;;;5096646;28;19947;-47
2022/12/10 06:50:55;;;;;;;;;;;20.30;82.40;;;;;;5096573;28;19916;-47
2022/12/10 06:53:21;;;;;;;;;;;20.30;82.40;;;;;;5096376;28;19912;-46
2022/12/10 06:55:46;;;;;;;;;;;20.30;82.40;;;;;;5096197;28;19915;-46
2022/12/10 06:58:12;;;;;;;;;;;20.30;82.40;;;;;;5096463;28;20011;-47
2022/12/10 07:00:37;;;;;;;;;;;20.30;82.40;;;;;;5096477;28;20282;-46
2022/12/10 07:03:03;;;;;;;;;;;20.30;82.30;;;;;;5096764;28;20007;-49
2022/12/10 07:05:28;;;;;;;;;;;20.30;82.40;;;;;;5096143;28;20409;-46
2022/12/10 07:07:53;;;;;;;;;;;20.20;82.30;;;;;;5096385;28;20297;-46
2022/12/10 07:10:19;;;;;;;;;;;20.30;82.40;;;;;;5096241;28;19908;-46
2022/12/10 07:12:44;;;;;;;;;;;20.20;82.40;;;;;;5078456;28;19938;-46
2022/12/10 07:15:10;;;;;;;;;;;20.30;82.40;;;;;;5096064;28;19908;-47
2022/12/10 07:17:35;;;;;;;;;;;20.20;82.40;;;;;;5095568;28;19912;-46
2022/12/10 07:20:02;;;;;;;;;;;20.20;82.30;;;;;;5095795;28;19923;-44
2022/12/10 07:22:27;;;;;;;;;;;20.20;82.40;;;;;;5077880;28;19915;-45
2022/12/10 07:24:53;;;;;;;;;;;20.30;82.40;;;;;;5095658;28;20282;-48
2022/12/10 07:27:18;;;;;;;;;;;20.20;82.30;;;;;;5095979;28;19908;-45
2022/12/10 07:29:44;;;;;;;;;;;20.20;82.90;;;;;;5095850;28;20365;-45
2022/12/10 07:32:10;;;;;;;;;;;20.20;82.30;;;;;;5095808;28;19912;-47
2022/12/10 07:34:35;;;;;;;;;;;20.20;82.40;;;;;;5095848;28;19960;-46
2022/12/10 07:37:01;;;;;;;;;;;20.20;82.30;;;;;;5095421;28;20347;-49
2022/12/10 07:39:26;;;;;;;;;;;20.20;82.40;;;;;;5095575;28;19916;-47
2022/12/10 07:41:52;;;;;;;;;;;20.20;82.40;;;;;;5095500;28;20350;-46
2022/12/10 07:44:22;;;;;;;;;;;20.20;82.30;;;;;;5095571;28;19962;-46
2022/12/10 07:46:48;;;;;;;;;;;20.20;82.40;;;;;;5095481;28;19908;-47
2022/12/10 07:49:14;;;;;;;;;;;20.20;82.40;;;;;;5095066;28;19969;-48
2022/12/10 07:51:43;;;;;;;;;;;20.20;82.40;;;;;;5095201;28;20367;-47
2022/12/10 07:54:08;;;;;;;;;;;20.20;82.50;;;;;;5095114;28;19916;-44
2022/12/10 07:56:34;;;;;;;;;;;20.20;82.40;;;;;;5094362;28;19908;-46
2022/12/10 07:58:59;;;;;;;;;;;20.20;82.50;;;;;;5094902;28;20362;-45
2022/12/10 08:01:25;;;;;;;;;;;20.20;82.40;;;;;;5094817;28;19918;-49
2022/12/10 08:03:51;;;;;;;;;;;20.20;82.60;;;;;;5093477;28;19920;-46
2022/12/10 08:06:18;;;;;;;;;;;20.20;82.50;;;;;;5094550;28;19961;-48
2022/12/10 08:08:43;;;;;;;;;;;20.10;82.40;;;;;;5076803;28;20348;-49
2022/12/10 08:11:09;;;;;;;;;;;20.10;82.40;;;;;;5094750;28;19908;-48
2022/12/10 08:13:35;;;;;;;;;;;20.10;82.50;;;;;;5094658;28;19916;-46
2022/12/10 08:16:05;;;;;;;;;;;20.10;82.60;;;;;;5076786;28;19961;-48
2022/12/10 08:18:31;;;;;;;;;;;20.10;82.70;;;;;;5094553;28;19935;-45
2022/12/10 08:20:56;;;;;;;;;;;20.10;82.80;;;;;;5094427;28;19919;-47
2022/12/10 08:23:22;;;;;;;;;;;20.10;82.60;;;;;;5095065;28;19908;-46
2022/12/10 08:25:47;;;;;;;;;;;20.10;82.60;;;;;;5075960;28;20425;-48
2022/12/10 08:28:13;;;;;;;;;;;20.20;82.50;;;;;;5094136;28;19908;-48
2022/12/10 08:30:38;;;;;;;;;;;20.20;82.50;;;;;;5094021;28;19908;-45
2022/12/10 08:33:04;;;;;;;;;;;20.20;82.50;;;;;;5095753;28;19919;-48
2022/12/10 08:35:29;;;;;;;;;;;20.20;82.50;;;;;;5095738;28;19924;-45
2022/12/10 08:37:55;;;;;;;;;;;20.20;82.40;;;;;;5104026;28;19912;-47
2022/12/10 08:40:20;;;;;;;;;;;20.30;82.30;;;;;;5111175;28;19923;-45
2022/12/10 08:42:46;;;;;;;;;;;20.40;82.50;;;;;;5094440;28;19918;-48
2022/12/10 08:45:11;;;;;;;;;;;20.40;82.20;;;;;;5096284;28;19908;-48
2022/12/10 08:47:37;;;;;;;;;;;20.40;82.10;;;;;;5100451;28;20278;-46
2022/12/10 08:50:03;;;;;;;;;;;20.50;82.00;;;;;;5093992;28;19912;-49
2022/12/10 08:52:29;;;;;;;;;;;20.40;81.90;;;;;;5092782;28;19914;-46
2022/12/10 08:54:54;;;;;;;;;;;20.50;81.90;;;;;;5092509;28;20282;-50
2022/12/10 08:57:20;;;;;;;;;;;20.50;81.90;;;;;;5093830;28;19916;-46
2022/12/10 08:59:45;;;;;;;;;;;20.50;81.90;;;;;;5097474;28;20285;-44
2022/12/10 09:02:11;;;;;;;;;;;20.50;81.80;;;;;;5110560;28;19923;-48
2022/12/10 09:04:38;;;;;;;;;;;20.50;81.70;;;;;;5091910;28;19908;-45
2022/12/10 09:07:04;;;;;;;;;;;20.50;81.50;;;;;;5095443;28;19912;-46
2022/12/10 09:09:31;;;;;;;;;;;20.50;81.70;;;;;;5105774;28;19916;-48
2022/12/10 09:11:57;;;;;;;;;;;20.50;81.60;;;;;;5092583;28;19920;-47
2022/12/10 09:14:23;;;;;;;;;;;20.50;81.70;;;;;;5094863;28;19915;-45
2022/12/10 09:16:48;;;;;;;;;;;20.50;81.80;;;;;;5110017;28;19918;-46
2022/12/10 09:19:14;;;;;;;;;;;20.50;81.70;;;;;;5114165;28;20002;-44
2022/12/10 09:21:39;;;;;;;;;;;20.40;81.70;;;;;;5094437;28;20363;-46
2022/12/10 09:24:05;;;;;;;;;;;20.40;81.70;;;;;;5074786;28;19912;-45
2022/12/10 09:26:31;;;;;;;;;;;20.40;81.60;;;;;;5093752;28;19958;-49
2022/12/10 09:28:57;;;;;;;;;;;20.40;81.70;;;;;;5092107;28;20382;-46
2022/12/10 09:31:23;;;;;;;;;;;20.50;81.60;;;;;;5099430;28;19922;-46
2022/12/10 09:33:50;;;;;;;;;;;20.40;81.50;;;;;;5100310;28;19920;-47
2022/12/10 09:36:16;;;;;;;;;;;20.40;81.60;;;;;;5099955;28;20285;-46
2022/12/10 09:38:42;;;;;;;;;;;20.50;81.60;;;;;;5113127;28;19916;-48
2022/12/10 09:41:10;;;;;;;;;;;20.50;81.40;;;;;;5108392;28;19996;-45
2022/12/10 09:43:55;;;;;;;;;;;20.50;81.40;;;;;;5093364;28;19980;-47
2022/12/10 09:46:39;;;;;;;;;;;20.50;81.40;;;;;;5090314;28;19916;-44
2022/12/10 09:49:20;;;;;;;;;;;20.50;81.20;;;;;;5062947;28;19923;-46
2022/12/10 09:51:46;;;;;;;;;;;20.60;81.20;;;;;;5092211;28;20363;-44
2022/12/10 09:54:17;;;;;;;;;;;20.60;81.20;;;;;;5091217;28;19912;-46
2022/12/10 09:56:43;;;;;;;;;;;20.60;81.10;;;;;;5074376;28;20416;-49
2022/12/10 09:59:20;;;;;;;;;;;20.60;81.00;;;;;;5108753;28;20045;-47
2022/12/10 10:01:49;;;;;;;;;;;20.60;81.00;;;;;;5111108;28;19916;-47
2022/12/10 10:04:14;;;;;;;;;;;20.60;81.00;;;;;;5109575;28;20255;-48
2022/12/10 10:06:40;;;;;;;;;;;20.70;81.00;;;;;;5112049;28;19996;-52
2022/12/10 10:09:06;;;;;;;;;;;20.70;81.00;;;;;;5112023;28;19962;-49
2022/12/10 10:11:33;;;;;;;;;;;20.60;80.90;;;;;;5100858;28;19958;-46
2022/12/10 10:14:01;;;;;;;;;;;20.70;80.90;;;;;;5092466;28;20370;-47
2022/12/10 10:16:45;;;;;;;;;;;20.60;80.90;;;;;;5092484;28;19912;-46
2022/12/10 10:19:15;;;;;;;;;;;20.60;80.90;;;;;;5092783;28;20011;-48
2022/12/10 10:21:46;;;;;;;;;;;20.60;80.90;;;;;;5097127;28;20431;-47
2022/12/10 10:24:13;;;;;;;;;;;20.60;80.90;;;;;;5110182;28;20284;-51
2022/12/10 10:26:39;;;;;;;;;;;20.30;74.60;;;;;;5095525;28;19918;-47
2022/12/10 10:29:06;;;;;;;;;;;20.10;74.60;;;;;;5109153;28;19911;-46
2022/12/10 10:31:32;;;;;;;;;;;20.10;76.80;;;;;;5097533;28;19920;-46
2022/12/10 10:34:02;;;;;;;;;;;20.20;79.70;;;;;;5097277;28;19981;-47
2022/12/10 10:36:30;;;;;;;;;;;20.30;80.20;;;;;;5095748;28;19916;-50
2022/12/10 10:38:55;;;;;;;;;;;20.30;80.40;;;;;;5095835;28;19912;-45
2022/12/10 10:41:23;;;;;;;;;;;20.30;80.50;;;;;;5099619;28;19935;-48
2022/12/10 10:43:49;;;;;;;;;;;20.30;80.80;;;;;;5096676;28;19908;-50
2022/12/10 10:46:16;;;;;;;;;;;20.30;80.80;;;;;;5106905;28;19912;-48
2022/12/10 10:48:42;;;;;;;;;;;20.30;81.10;;;;;;5107615;28;19915;-48
2022/12/10 10:51:18;;;;;;;;;;;20.30;81.20;;;;;;5078821;28;20270;-48
2022/12/10 10:53:55;;;;;;;;;;;20.20;81.30;;;;;;5100678;28;19918;-46
2022/12/10 10:56:22;;;;;;;;;;;20.20;82.30;;;;;;5113169;28;19916;-48
2022/12/10 10:59:19;;;;;;;;;;;20.30;82.40;;;;;;5116393;28;20266;-46
2022/12/10 11:01:44;;;;;;;;;;;20.20;82.50;;;;;;5102611;28;19916;-48
2022/12/10 11:04:10;;;;;;;;;;;20.20;82.50;;;;;;5095131;28;19919;-47
2022/12/10 11:06:35;;;;;;;;;;;20.20;82.50;;;;;;5096221;28;19915;-48
2022/12/10 11:09:01;;;;;;;;;;;20.20;82.50;;;;;;5094454;28;20286;-48
2022/12/10 11:11:32;;;;;;;;;;;20.20;82.40;;;;;;5109178;28;20359;-47
2022/12/10 11:14:15;;;;;;;;;;;20.20;82.40;;;;;;5113566;28;19908;-46
2022/12/10 11:16:41;;;;;;;;;;;20.20;82.40;;;;;;5105293;28;19922;-47
2022/12/10 11:19:18;;;;;;;;;;;20.20;82.30;;;;;;5112126;28;19925;-51
2022/12/10 11:21:43;;;;;;;;;;;20.20;82.30;;;;;;5094063;28;19919;-48
2022/12/10 11:24:11;;;;;;;;;;;20.20;82.30;;;;;;5094143;28;19935;-46
2022/12/10 11:26:55;;;;;;;;;;;20.30;82.30;;;;;;5092734;28;19966;-47
2022/12/10 11:29:30;;;;;;;;;;;20.30;82.30;;;;;;5095410;28;19981;-49
2022/12/10 11:32:03;;;;;;;;;;;20.30;82.30;;;;;;5076928;28;19916;-49
2022/12/10 11:34:44;;;;;;;;;;;20.30;82.30;;;;;;5115932;28;20359;-47
2022/12/10 11:37:19;;;;;;;;;;;20.30;82.20;;;;;;5077002;28;19912;-47
2022/12/10 11:40:04;;;;;;;;;;;20.30;82.20;;;;;;5094128;28;19916;-48
2022/12/10 11:42:39;;;;;;;;;;;20.40;82.10;;;;;;5094967;28;20010;-49
2022/12/10 11:45:07;;;;;;;;;;;20.30;82.00;;;;;;5094079;28;20005;-49
2022/12/10 11:47:39;;;;;;;;;;;20.40;82.00;;;;;;5095370;28;19951;-48
2022/12/10 11:50:14;;;;;;;;;;;20.40;81.90;;;;;;5077034;28;19915;-48
2022/12/10 11:52:51;;;;;;;;;;;20.40;81.90;;;;;;5088425;28;19912;-47
2022/12/10 11:55:37;;;;;;;;;;;20.40;81.90;;;;;;5107255;28;20307;-47
2022/12/10 11:58:05;;;;;;;;;;;20.40;81.90;;;;;;5048787;28;20014;-46
2022/12/10 12:00:39;;;;;;;;;;;20.40;82.00;;;;;;5094680;28;19923;-49
2022/12/10 12:03:04;;;;;;;;;;;20.40;82.00;;;;;;5076654;28;19911;-46
2022/12/10 12:05:36;;;;;;;;;;;20.40;82.00;;;;;;5094700;28;19962;-45
2022/12/10 12:08:04;;;;;;;;;;;20.40;82.00;;;;;;5094457;28;19912;-48
2022/12/10 12:10:36;;;;;;;;;;;20.40;82.00;;;;;;5094724;28;19908;-46
2022/12/10 12:13:10;;;;;;;;;;;20.40;82.00;;;;;;5094384;28;20008;-48
2022/12/10 12:15:39;;;;;;;;;;;20.40;81.90;;;;;;5093629;28;20377;-48
2022/12/10 12:18:18;;;;;;;;;;;20.40;81.90;;;;;;5092848;28;20019;-47
2022/12/10 12:20:47;;;;;;;;;;;20.40;81.60;;;;;;5096484;28;20008;-49
2022/12/10 12:23:19;;;;;;;;;;;20.40;81.80;;;;;;5100205;28;20281;-49
2022/12/10 12:25:46;;;;;;;;;;;20.40;81.70;;;;;;5092838;28;19908;-49
2022/12/10 12:28:15;;;;;;;;;;;20.40;81.80;;;;;;5093968;28;19915;-51
2022/12/10 12:30:42;;;;;;;;;;;20.40;81.90;;;;;;5093910;28;19916;-47
2022/12/10 12:33:22;;;;;;;;;;;20.40;81.90;;;;;;5094046;28;19908;-51
2022/12/10 12:36:04;;;;;;;;;;;20.40;82.20;;;;;;5093613;28;20339;-49
2022/12/10 12:38:49;;;;;;;;;;;20.30;82.20;;;;;;5075667;28;19912;-46
2022/12/10 12:41:34;;;;;;;;;;;20.30;82.30;;;;;;5075877;28;19912;-48
2022/12/10 12:44:08;;;;;;;;;;;20.30;82.40;;;;;;5062482;28;19958;-49
2022/12/10 12:46:45;;;;;;;;;;;20.30;82.40;;;;;;5094717;28;20007;-49
2022/12/10 12:49:11;;;;;;;;;;;20.30;82.40;;;;;;5094451;28;19909;-48
2022/12/10 12:51:39;;;;;;;;;;;20.30;82.50;;;;;;5093757;28;19912;-48
2022/12/10 12:54:04;;;;;;;;;;;20.30;82.50;;;;;;5094293;28;19962;-47
2022/12/10 12:56:49;;;;;;;;;;;20.30;82.70;;;;;;5094220;28;20371;-51
2022/12/10 12:59:17;;;;;;;;;;;20.30;82.70;;;;;;5093810;28;19916;-47
2022/12/10 13:01:47;;;;;;;;;;;20.30;82.60;;;;;;5093739;28;19916;-50
2022/12/10 13:04:13;;;;;;;;;;;20.30;82.60;;;;;;5094268;28;19908;-46
2022/12/10 13:06:44;;;;;;;;;;;20.30;82.80;;;;;;5094134;28;20347;-50
2022/12/10 13:09:15;;;;;;;;;;;20.30;82.40;;;;;;5093983;28;20364;-48
2022/12/10 13:11:46;;;;;;;;;;;20.40;82.50;;;;;;5091931;28;19916;-48
2022/12/10 13:14:14;;;;;;;;;;;20.30;82.40;;;;;;5093546;28;19914;-47
2022/12/10 13:16:45;;;;;;;;;;;20.30;82.50;;;;;;5093503;28;20267;-46
2022/12/10 13:19:20;;;;;;;;;;;20.40;82.50;;;;;;5092747;28;20011;-45
2022/12/10 13:21:57;;;;;;;;;;;20.40;82.50;;;;;;5092391;28;20255;-46
2022/12/10 13:24:34;;;;;;;;;;;20.30;82.50;;;;;;5093740;28;19915;-45
2022/12/10 13:27:15;;;;;;;;;;;20.30;82.60;;;;;;5092297;28;20007;-49
2022/12/10 13:29:57;;;;;;;;;;;20.30;82.50;;;;;;5093802;28;19908;-49
2022/12/10 13:32:28;;;;;;;;;;;20.40;82.60;;;;;;5092117;28;19916;-45
2022/12/10 13:35:09;;;;;;;;;;;20.40;82.50;;;;;;5099331;28;19916;-45
2022/12/10 13:37:47;;;;;;;;;;;20.40;82.60;;;;;;5084138;28;19908;-45
2022/12/10 13:40:12;;;;;;;;;;;20.40;82.50;;;;;;5093527;28;20262;-47
2022/12/10 13:45:25;;;;;;;;;;;20.40;82.60;;;;;;5090928;28;20242;-45
2022/12/10 13:47:54;;;;;;;;;;;20.40;82.60;;;;;;5091888;28;19912;-47
2022/12/10 13:50:42;;;;;;;;;;;20.40;82.60;;;;;;5093263;28;20003;-47
2022/12/10 13:53:08;;;;;;;;;;;20.40;82.70;;;;;;5093320;28;19908;-46
2022/12/10 13:55:52;;;;;;;;;;;20.40;82.70;;;;;;5096661;28;20370;-47
2022/12/10 13:58:18;;;;;;;;;;;20.40;82.60;;;;;;5105863;28;20001;-47
2022/12/10 14:00:53;;;;;;;;;;;20.40;82.70;;;;;;5101765;28;19912;-45
2022/12/10 14:03:37;;;;;;;;;;;20.40;82.60;;;;;;5101013;28;19907;-50
2022/12/10 14:06:19;;;;;;;;;;;20.40;82.60;;;;;;5105110;28;19912;-45
2022/12/10 14:09:00;;;;;;;;;;;20.40;82.70;;;;;;5097079;28;19909;-49
2022/12/10 14:11:27;;;;;;;;;;;20.40;82.70;;;;;;5076751;28;19922;-48
2022/12/10 14:13:57;;;;;;;;;;;20.40;82.80;;;;;;5090793;28;19943;-47
2022/12/10 14:16:23;;;;;;;;;;;20.40;82.80;;;;;;5090034;28;19968;-45
2022/12/10 14:18:52;;;;;;;;;;;20.40;82.90;;;;;;5095795;28;19987;-47
2022/12/10 14:21:18;;;;;;;;;;;20.30;82.90;;;;;;5096337;28;20244;-45
2022/12/10 14:23:48;;;;;;;;;;;20.30;82.80;;;;;;5096655;28;19919;-51
2022/12/10 14:26:21;;;;;;;;;;;20.40;82.80;;;;;;5085938;28;19912;-50
2022/12/10 14:28:47;;;;;;;;;;;20.40;83.10;;;;;;5096479;28;19916;-47
2022/12/10 14:31:16;;;;;;;;;;;20.40;82.80;;;;;;5096776;28;20354;-48
2022/12/10 14:33:44;;;;;;;;;;;20.40;82.60;;;;;;5095374;28;19928;-46
2022/12/10 14:36:19;;;;;;;;;;;20.50;82.80;;;;;;5078608;28;19923;-41
2022/12/10 14:38:45;;;;;;;;;;;20.50;82.80;;;;;;5095896;28;19951;-48